createdAt,value
2022-11-13T00:00:38.249Z,99368.81
2022-11-13T00:08:30.509Z,99352.78
2022-11-13T00:11:05.953Z,99337.13
2022-11-13T00:13:33.251Z,99349.41
2022-11-13T00:16:03.501Z,99343.75
2022-11-13T00:18:31.773Z,99351.72
2022-11-13T00:20:58.944Z,99342.56
2022-11-13T00:23:25.467Z,99335.09
2022-11-13T00:25:52.119Z,99342.06
2022-11-13T00:28:18.693Z,99336.09
2022-11-13T00:30:45.400Z,99337.63
2022-11-13T00:33:12.088Z,99334.72
2022-11-13T00:35:38.733Z,99329.94
2022-11-13T00:38:05.342Z,99323.66
2022-11-13T00:40:32.000Z,99323.38
2022-11-13T00:42:58.598Z,99323.13
2022-11-13T00:45:25.195Z,99321.63
2022-11-13T00:50:23.622Z,99310.53
2022-11-13T00:52:50.251Z,99304.78
2022-11-13T00:57:48.246Z,99305.75
2022-11-13T01:00:14.932Z,99308.03
2022-11-13T01:02:41.568Z,99306.13
2022-11-13T01:05:08.565Z,99306.72
2022-11-13T01:07:37.572Z,99306.25
2022-11-13T01:10:07.941Z,99313.47
2022-11-13T01:12:34.681Z,99295.41
2022-11-13T01:15:01.470Z,99298.75
2022-11-13T01:17:28.089Z,99296.88
2022-11-13T01:19:54.739Z,99289.34
2022-11-13T01:22:21.510Z,99296.91
2022-11-13T01:24:48.125Z,99294.97
2022-11-13T01:27:16.119Z,99284.31
2022-11-13T01:29:43.027Z,99288.16
2022-11-13T01:32:09.902Z,99279.81
2022-11-13T01:34:36.596Z,99282.00
2022-11-13T01:37:03.718Z,99273.66
2022-11-13T01:39:30.348Z,99274.13
2022-11-13T01:41:57.201Z,99268.59
2022-11-13T01:44:23.793Z,99272.69
2022-11-13T01:46:53.459Z,99273.47
2022-11-13T01:49:31.843Z,99264.19
2022-11-13T01:52:03.468Z,99258.66
2022-11-13T01:54:34.003Z,99257.59
2022-11-13T01:57:02.847Z,99258.00
2022-11-13T01:59:34.643Z,99253.53
2022-11-13T02:02:02.222Z,99237.50
2022-11-13T02:04:29.792Z,99245.78
2022-11-13T02:07:12.821Z,99239.59
2022-11-13T02:09:46.324Z,99238.53
2022-11-13T02:12:17.030Z,99230.63
2022-11-13T02:14:52.167Z,99229.63
2022-11-13T02:17:24.428Z,99228.66
2022-11-13T02:22:57.161Z,99221.16
2022-11-13T02:25:25.795Z,99216.91
2022-11-13T02:27:52.385Z,99214.00
2022-11-13T02:30:26.557Z,99210.63
2022-11-13T02:32:55.843Z,99212.91
2022-11-13T02:35:35.217Z,99197.88
2022-11-13T02:38:04.615Z,99204.09
2022-11-13T02:40:33.036Z,99212.56
2022-11-13T02:42:59.709Z,99207.44
2022-11-13T02:45:26.332Z,99202.50
2022-11-13T02:47:52.974Z,99213.41
2022-11-13T02:50:19.519Z,99208.28
2022-11-13T02:52:46.155Z,99210.38
2022-11-13T02:55:12.984Z,99201.50
2022-11-13T02:57:39.574Z,99196.72
2022-11-13T03:00:10.668Z,99192.13
2022-11-13T03:02:40.287Z,99186.88
2022-11-13T03:05:12.344Z,99180.63
2022-11-13T03:07:39.897Z,99189.72
2022-11-13T03:10:07.101Z,99188.09
2022-11-13T03:12:34.235Z,99187.13
2022-11-13T03:15:01.152Z,99190.13
2022-11-13T03:17:27.966Z,99181.16
2022-11-13T03:19:54.541Z,99183.19
2022-11-13T03:22:21.124Z,99184.38
2022-11-13T03:24:47.727Z,99185.78
2022-11-13T03:27:14.328Z,99179.31
2022-11-13T03:29:40.926Z,99176.25
2022-11-13T03:32:07.595Z,99173.38
2022-11-13T03:34:34.272Z,99183.19
2022-11-13T03:37:00.952Z,99184.84
2022-11-13T03:39:27.565Z,99182.81
2022-11-13T03:41:54.192Z,99176.97
2022-11-13T03:44:20.841Z,99170.78
2022-11-13T03:46:47.558Z,99187.94
2022-11-13T03:51:46.027Z,99179.53
2022-11-13T03:54:12.664Z,99175.47
2022-11-13T03:56:39.322Z,99175.38
2022-11-13T03:59:05.935Z,99175.53
2022-11-13T04:01:32.595Z,99180.84
2022-11-13T04:03:59.181Z,99177.59
2022-11-13T04:06:25.819Z,99176.16
2022-11-13T04:08:52.355Z,99172.50
2022-11-13T04:11:18.931Z,99172.06
2022-11-13T04:13:45.491Z,99167.81
2022-11-13T04:16:12.077Z,99167.59
2022-11-13T04:18:38.715Z,99158.84
2022-11-13T04:21:05.935Z,99152.75
2022-11-13T04:23:32.683Z,99154.69
2022-11-13T04:25:59.262Z,99158.88
2022-11-13T04:28:26.259Z,99144.81
2022-11-13T04:30:54.439Z,99146.78
2022-11-13T04:33:21.691Z,99140.69
2022-11-13T04:35:48.742Z,99137.44
2022-11-13T04:38:16.026Z,99140.31
2022-11-13T04:40:42.996Z,99128.38
2022-11-13T04:43:09.696Z,99129.19
2022-11-13T04:45:37.030Z,99129.38
2022-11-13T04:48:03.913Z,99132.91
2022-11-13T04:50:30.710Z,99131.78
2022-11-13T04:52:57.366Z,99127.97
2022-11-13T04:55:23.992Z,99123.84
2022-11-13T04:57:54.785Z,99130.81
2022-11-13T05:00:21.542Z,99121.75
2022-11-13T05:02:48.154Z,99121.88
2022-11-13T05:05:14.831Z,99118.94
2022-11-13T05:07:42.790Z,99108.81
2022-11-13T05:10:09.971Z,99110.16
2022-11-13T05:12:36.533Z,99111.88
2022-11-13T05:15:04.096Z,99105.72
2022-11-13T05:17:30.665Z,99101.94
2022-11-13T05:22:35.567Z,99103.03
2022-11-13T05:25:02.187Z,99094.22
2022-11-13T05:27:28.774Z,99098.47
2022-11-13T05:29:55.344Z,99094.53
2022-11-13T05:32:21.943Z,99096.75
2022-11-13T05:34:48.503Z,99094.69
2022-11-13T05:37:15.233Z,99087.25
2022-11-13T05:39:41.834Z,99079.19
2022-11-13T05:42:08.473Z,99086.81
2022-11-13T05:44:35.017Z,99083.78
2022-11-13T05:49:32.858Z,99081.75
2022-11-13T05:51:59.424Z,99082.59
2022-11-13T05:54:26.048Z,99087.63
2022-11-13T05:56:52.623Z,99081.50
2022-11-13T05:59:19.201Z,99096.00
2022-11-13T06:01:45.787Z,99096.34
2022-11-13T06:04:12.447Z,99097.50
2022-11-13T06:06:39.120Z,99098.34
2022-11-13T06:09:06.747Z,99094.91
2022-11-13T06:11:33.468Z,99088.78
2022-11-13T06:14:00.864Z,99094.28
2022-11-13T06:16:30.093Z,99095.38
2022-11-13T06:18:59.078Z,99087.03
2022-11-13T06:21:28.331Z,99092.69
2022-11-13T06:23:56.602Z,99086.78
2022-11-13T06:29:06.875Z,99082.97
2022-11-13T06:31:36.061Z,99076.59
2022-11-13T06:34:03.401Z,99079.09
2022-11-13T06:36:33.243Z,99079.34
2022-11-13T06:39:00.238Z,99073.16
2022-11-13T06:41:30.068Z,99071.06
2022-11-13T06:46:31.359Z,99065.97
2022-11-13T06:48:58.743Z,99064.91
2022-11-13T06:51:28.963Z,99067.25
2022-11-13T06:53:57.072Z,99059.00
2022-11-13T06:56:24.263Z,99058.91
2022-11-13T06:58:50.964Z,99052.28
2022-11-13T07:01:20.172Z,99058.69
2022-11-13T07:03:47.092Z,99063.97
2022-11-13T07:06:16.958Z,99058.06
2022-11-13T07:08:44.464Z,99049.22
2022-11-13T07:11:14.128Z,99054.44
2022-11-13T07:13:40.958Z,99046.16
2022-11-13T07:16:16.265Z,99049.38
2022-11-13T07:18:49.067Z,99049.56
2022-11-13T07:21:15.681Z,99049.03
2022-11-13T07:23:43.767Z,99042.75
2022-11-13T07:26:13.484Z,99047.13
2022-11-13T07:28:40.153Z,99038.44
2022-11-13T07:31:07.424Z,99036.81
2022-11-13T07:33:34.423Z,99029.66
2022-11-13T07:36:01.209Z,99022.94
2022-11-13T07:38:28.301Z,99020.59
2022-11-13T07:40:57.343Z,99012.63
2022-11-13T07:43:24.002Z,99011.44
2022-11-13T07:45:54.762Z,99015.84
2022-11-13T07:48:22.413Z,99024.31
2022-11-13T07:50:49.671Z,99021.13
2022-11-13T07:53:16.899Z,99014.94
2022-11-13T07:55:43.802Z,99015.59
2022-11-13T07:58:10.522Z,99005.66
2022-11-13T08:00:37.279Z,98992.19
2022-11-13T08:03:08.648Z,99006.28
2022-11-13T08:05:35.870Z,98996.13
2022-11-13T08:10:33.757Z,98999.31
2022-11-13T08:13:11.070Z,98994.69
2022-11-13T08:15:38.104Z,98985.81
2022-11-13T08:18:05.386Z,98989.66
2022-11-13T08:20:32.710Z,98982.59
2022-11-13T08:23:01.165Z,98978.81
2022-11-13T08:25:29.174Z,98987.22
2022-11-13T08:27:56.130Z,98979.88
2022-11-13T08:30:24.608Z,98970.44
2022-11-13T08:35:29.166Z,98971.63
2022-11-13T08:38:01.721Z,98969.53
2022-11-13T08:40:28.279Z,98953.44
2022-11-13T08:43:00.253Z,98959.78
2022-11-13T08:45:27.515Z,98968.56
2022-11-13T08:47:54.208Z,98963.78
2022-11-13T08:50:20.826Z,98962.50
2022-11-13T08:52:47.445Z,98959.63
2022-11-13T08:55:14.020Z,98964.69
2022-11-13T08:57:40.615Z,98954.34
2022-11-13T09:00:08.025Z,98952.47
2022-11-13T09:02:34.599Z,98949.59
2022-11-13T09:05:01.285Z,98944.84
2022-11-13T09:07:27.949Z,98959.53
2022-11-13T09:09:54.582Z,98955.91
2022-11-13T09:12:21.634Z,98957.75
2022-11-13T09:14:48.181Z,98947.78
2022-11-13T09:17:14.917Z,98953.81
2022-11-13T09:19:41.454Z,98956.03
2022-11-13T09:22:08.550Z,98955.25
2022-11-13T09:24:35.156Z,98967.00
2022-11-13T09:27:01.964Z,98956.34
2022-11-13T09:29:28.856Z,98957.16
2022-11-13T09:31:56.173Z,98957.75
2022-11-13T09:34:23.065Z,98955.09
2022-11-13T09:36:49.666Z,98956.13
2022-11-13T09:39:17.266Z,98951.53
2022-11-13T09:41:57.681Z,98948.03
2022-11-13T09:44:43.582Z,98938.28
2022-11-13T09:47:18.788Z,98937.56
2022-11-13T09:50:02.312Z,98942.69
2022-11-13T09:52:38.351Z,98951.25
2022-11-13T09:55:05.785Z,98952.88
2022-11-13T09:57:38.540Z,98940.31
2022-11-13T10:03:11.460Z,98945.25
2022-11-13T10:05:56.490Z,98943.81
2022-11-13T10:08:49.231Z,98939.03
2022-11-13T10:11:39.628Z,98925.34
2022-11-13T10:14:19.904Z,98938.56
2022-11-13T10:17:01.802Z,98931.06
2022-11-13T10:19:36.481Z,98929.00
2022-11-13T10:22:34.858Z,98918.63
2022-11-13T10:25:20.545Z,98917.19
2022-11-13T10:28:43.593Z,98912.88
2022-11-13T10:31:04.338Z,98903.16
2022-11-13T10:33:31.053Z,98908.75
2022-11-13T10:36:28.809Z,98908.25
2022-11-13T10:39:03.497Z,98883.53
2022-11-13T10:41:30.304Z,98895.81
2022-11-13T10:44:17.926Z,98900.28
2022-11-13T10:46:44.554Z,98887.69
2022-11-13T10:49:19.408Z,98889.75
2022-11-13T10:51:56.601Z,98888.94
2022-11-13T10:54:26.749Z,98874.91
2022-11-13T10:57:30.331Z,98875.56
2022-11-13T10:59:56.922Z,98868.06
2022-11-13T11:02:26.722Z,98871.84
2022-11-13T11:05:16.706Z,98855.31
2022-11-13T11:07:43.328Z,98855.59
2022-11-13T11:10:59.569Z,98844.72
2022-11-13T11:13:28.007Z,98835.28
2022-11-13T11:15:59.500Z,98824.34
2022-11-13T11:18:34.116Z,98817.88
2022-11-13T11:21:07.766Z,98813.41
2022-11-13T11:23:37.264Z,98811.03
2022-11-13T11:26:12.762Z,98810.97
2022-11-13T11:28:52.085Z,98807.41
2022-11-13T11:31:45.478Z,98809.31
2022-11-13T11:34:31.812Z,98805.03
2022-11-13T11:39:58.024Z,98799.00
2022-11-13T11:42:45.514Z,98799.56
2022-11-13T11:45:26.430Z,98788.25
2022-11-13T11:47:54.363Z,98776.75
2022-11-13T11:50:35.345Z,98768.09
2022-11-13T11:53:25.711Z,98760.72
2022-11-13T11:56:07.241Z,98760.28
2022-11-13T11:58:39.341Z,98758.69
2022-11-13T12:01:17.574Z,98758.22
2022-11-13T12:03:59.349Z,98747.00
2022-11-13T12:06:35.386Z,98738.34
2022-11-13T12:09:17.472Z,98715.22
2022-11-13T12:12:06.442Z,98714.25
2022-11-13T12:14:39.080Z,98713.47
2022-11-13T12:17:43.796Z,98714.88
2022-11-13T12:20:26.259Z,98704.28
2022-11-13T12:23:17.730Z,98696.44
2022-11-13T12:25:56.693Z,98690.81
2022-11-13T12:28:25.958Z,98686.16
2022-11-13T12:30:58.066Z,98677.47
2022-11-13T12:33:47.521Z,98670.41
2022-11-13T12:36:14.756Z,98674.19
2022-11-13T12:39:18.707Z,98669.88
2022-11-13T12:41:53.058Z,98656.81
2022-11-13T12:44:27.505Z,98648.53
2022-11-13T12:46:56.106Z,98656.03
2022-11-13T12:49:22.724Z,98650.34
2022-11-13T12:52:01.299Z,98657.03
2022-11-13T12:54:37.625Z,98652.19
2022-11-13T12:57:12.844Z,98643.22
2022-11-13T12:59:48.073Z,98651.84
2022-11-13T13:02:14.633Z,98639.31
2022-11-13T13:05:07.682Z,98643.13
2022-11-13T13:07:39.852Z,98630.19
2022-11-13T13:10:09.132Z,98625.09
2022-11-13T13:12:38.523Z,98629.91
2022-11-13T13:15:29.042Z,98618.69
2022-11-13T13:18:11.835Z,98623.69
2022-11-13T13:20:46.379Z,98625.41
2022-11-13T13:23:14.414Z,98620.50
2022-11-13T13:25:41.138Z,98613.13
2022-11-13T13:28:07.712Z,98606.41
2022-11-13T13:30:53.842Z,98596.91
2022-11-13T13:33:42.803Z,98593.34
2022-11-13T13:36:21.770Z,98588.34
2022-11-13T13:39:01.928Z,98592.94
2022-11-13T13:41:34.910Z,98584.59
2022-11-13T13:44:26.228Z,98582.75
2022-11-13T13:46:53.147Z,98583.47
2022-11-13T13:49:23.464Z,98580.03
2022-11-13T13:51:52.748Z,98580.56
2022-11-13T13:54:26.282Z,98576.69
2022-11-13T13:56:56.061Z,98570.56
2022-11-13T13:59:35.406Z,98559.41
2022-11-13T14:02:13.750Z,98559.19
2022-11-13T14:04:46.626Z,98560.06
2022-11-13T14:07:28.847Z,98560.59
2022-11-13T14:10:14.082Z,98551.81
2022-11-13T14:12:42.978Z,98552.97
2022-11-13T14:15:21.567Z,98550.44
2022-11-13T14:17:48.354Z,98552.16
2022-11-13T14:20:15.583Z,98545.78
2022-11-13T14:22:44.393Z,98543.56
2022-11-13T14:25:28.382Z,98549.13
2022-11-13T14:27:55.055Z,98540.44
2022-11-13T14:30:25.668Z,98537.09
2022-11-13T14:32:52.799Z,98532.91
2022-11-13T14:35:22.530Z,98538.28
2022-11-13T14:37:50.420Z,98533.63
2022-11-13T14:40:23.834Z,98534.28
2022-11-13T14:42:59.714Z,98535.94
2022-11-13T14:45:29.117Z,98530.25
2022-11-13T14:48:18.804Z,98536.16
2022-11-13T14:51:00.484Z,98545.91
2022-11-13T14:53:30.226Z,98545.47
2022-11-13T14:56:02.432Z,98536.06
2022-11-13T14:58:31.293Z,98540.03
2022-11-13T15:00:59.259Z,98539.25
2022-11-13T15:03:27.877Z,98534.91
2022-11-13T15:05:54.952Z,98530.81
2022-11-13T15:08:21.572Z,98531.06
2022-11-13T15:13:19.874Z,98516.25
2022-11-13T15:15:46.548Z,98511.06
2022-11-13T15:18:17.344Z,98533.88
2022-11-13T15:20:45.436Z,98536.53
2022-11-13T15:23:15.597Z,98540.34
2022-11-13T15:25:42.737Z,98531.50
2022-11-13T15:28:09.394Z,98534.03
2022-11-13T15:30:36.376Z,98534.91
2022-11-13T15:33:06.425Z,98529.38
2022-11-13T15:35:32.981Z,98519.25
2022-11-13T15:37:59.521Z,98519.13
2022-11-13T15:40:26.112Z,98505.34
2022-11-13T15:42:52.731Z,98511.31
2022-11-13T15:45:19.288Z,98514.94
2022-11-13T15:47:45.973Z,98513.16
2022-11-13T15:50:14.845Z,98518.69
2022-11-13T15:52:48.652Z,98515.78
2022-11-13T15:55:24.847Z,98508.91
2022-11-13T15:57:51.840Z,98510.69
2022-11-13T16:00:27.019Z,98503.97
2022-11-13T16:02:57.723Z,98509.22
2022-11-13T16:05:26.131Z,98503.97
2022-11-13T16:07:53.719Z,98500.09
2022-11-13T16:12:53.797Z,98513.56
2022-11-13T16:15:20.556Z,98515.97
2022-11-13T16:17:50.828Z,98515.31
2022-11-13T16:20:18.056Z,98510.38
2022-11-13T16:22:46.406Z,98509.88
2022-11-13T16:25:15.639Z,98515.03
2022-11-13T16:27:42.433Z,98518.53
2022-11-13T16:30:20.827Z,98519.22
2022-11-13T16:32:48.057Z,98528.63
2022-11-13T16:35:19.377Z,98530.69
2022-11-13T16:37:46.068Z,98530.50
2022-11-13T16:40:21.260Z,98529.59
2022-11-13T16:42:48.319Z,98528.94
2022-11-13T16:50:22.772Z,98525.63
2022-11-13T16:52:50.714Z,98533.53
2022-11-13T16:55:17.600Z,98533.78
2022-11-13T16:57:44.285Z,98530.84
2022-11-13T17:00:14.437Z,98525.66
2022-11-13T17:02:41.184Z,98538.63
2022-11-13T17:05:12.719Z,98522.22
2022-11-13T17:07:39.416Z,98528.09
2022-11-13T17:12:54.324Z,98525.47
2022-11-13T17:15:21.554Z,98524.34
2022-11-13T17:17:48.498Z,98518.13
2022-11-13T17:20:18.360Z,98514.94
2022-11-13T17:25:23.436Z,98520.25
2022-11-13T17:27:50.045Z,98526.47
2022-11-13T17:30:17.000Z,98517.69
2022-11-13T17:32:43.703Z,98518.81
2022-11-13T17:35:12.859Z,98516.84
2022-11-13T17:37:39.914Z,98518.66
2022-11-13T17:40:07.739Z,98518.16
2022-11-13T17:42:34.381Z,98513.09
2022-11-13T17:45:00.971Z,98512.97
2022-11-13T17:47:27.594Z,98513.88
2022-11-13T17:49:54.368Z,98503.69
2022-11-13T17:52:20.994Z,98504.16
2022-11-13T17:54:47.617Z,98501.75
2022-11-13T17:57:14.631Z,98504.38
2022-11-13T17:59:41.578Z,98505.63
2022-11-13T18:02:11.595Z,98502.09
2022-11-13T18:04:38.210Z,98499.91
2022-11-13T18:07:04.940Z,98495.31
2022-11-13T18:09:31.661Z,98496.31
2022-11-13T18:11:58.285Z,98505.00
2022-11-13T18:14:24.906Z,98506.03
2022-11-13T18:16:51.555Z,98496.00
2022-11-13T18:19:18.415Z,98497.09
2022-11-13T18:21:45.188Z,98496.41
2022-11-13T18:24:15.645Z,98503.22
2022-11-13T18:26:43.035Z,98491.25
2022-11-13T18:29:10.027Z,98489.19
2022-11-13T18:31:36.794Z,98484.00
2022-11-13T18:34:05.778Z,98484.78
2022-11-13T18:36:34.792Z,98483.78
2022-11-13T18:39:04.859Z,98486.72
2022-11-13T18:41:32.743Z,98477.53
2022-11-13T18:43:59.526Z,98483.28
2022-11-13T18:46:26.310Z,98472.44
2022-11-13T18:48:54.833Z,98470.41
2022-11-13T18:51:24.151Z,98471.75
2022-11-13T18:53:52.178Z,98472.44
2022-11-13T18:56:24.715Z,98471.75
2022-11-13T18:58:53.418Z,98476.28
2022-11-13T19:01:23.523Z,98469.84
2022-11-13T19:04:16.292Z,98468.06
2022-11-13T19:06:39.346Z,98472.47
2022-11-13T19:09:12.592Z,98473.25
2022-11-13T19:11:39.959Z,98464.34
2022-11-13T19:14:07.660Z,98461.16
2022-11-13T19:16:37.671Z,98464.66
2022-11-13T19:19:24.559Z,98463.53
2022-11-13T19:21:51.312Z,98457.63
2022-11-13T19:24:18.044Z,98464.78
2022-11-13T19:26:46.058Z,98453.22
2022-11-13T19:29:13.067Z,98451.44
2022-11-13T19:31:39.973Z,98453.69
2022-11-13T19:36:46.523Z,98450.50
2022-11-13T19:41:46.586Z,98450.91
2022-11-13T19:44:13.344Z,98438.28
2022-11-13T19:46:40.026Z,98446.09
2022-11-13T19:49:07.252Z,98447.00
2022-11-13T19:51:33.890Z,98445.41
2022-11-13T19:54:00.650Z,98448.94
2022-11-13T19:56:31.086Z,98444.09
2022-11-13T19:58:57.804Z,98446.00
2022-11-13T20:01:27.082Z,98437.75
2022-11-13T20:03:58.855Z,98449.84
2022-11-13T20:06:27.111Z,98450.63
2022-11-13T20:08:54.039Z,98438.53
2022-11-13T20:11:20.776Z,98446.81
2022-11-13T20:13:47.660Z,98443.47
2022-11-13T20:16:15.998Z,98445.56
2022-11-13T20:18:44.122Z,98435.84
2022-11-13T20:21:11.242Z,98433.22
2022-11-13T20:23:38.717Z,98447.16
2022-11-13T20:26:07.883Z,98448.28
2022-11-13T20:28:34.900Z,98453.19
2022-11-13T20:31:22.447Z,98458.50
2022-11-13T20:33:51.004Z,98468.06
2022-11-13T20:36:18.374Z,98449.53
2022-11-13T20:38:50.693Z,98461.81
2022-11-13T20:41:20.724Z,98456.44
2022-11-13T20:43:51.107Z,98452.56
2022-11-13T20:46:19.776Z,98451.63
2022-11-13T20:48:46.768Z,98452.81
2022-11-13T20:51:14.876Z,98459.75
2022-11-13T20:53:42.261Z,98461.34
2022-11-13T20:56:09.835Z,98458.50
2022-11-13T20:58:37.363Z,98463.63
2022-11-13T21:01:07.923Z,98464.41
2022-11-13T21:03:40.002Z,98456.38
2022-11-13T21:06:09.285Z,98453.75
2022-11-13T21:08:36.176Z,98450.06
2022-11-13T21:11:04.338Z,98458.84
2022-11-13T21:13:31.001Z,98460.22
2022-11-13T21:15:57.810Z,98457.16
2022-11-13T21:18:25.471Z,98451.41
2022-11-13T21:20:52.186Z,98445.31
2022-11-13T21:23:18.833Z,98449.03
2022-11-13T21:25:45.556Z,98447.56
2022-11-13T21:28:12.260Z,98438.94
2022-11-13T21:30:39.012Z,98435.25
2022-11-13T21:33:05.659Z,98436.69
2022-11-13T21:35:32.356Z,98422.78
2022-11-13T21:37:59.076Z,98430.81
2022-11-13T21:40:25.757Z,98432.78
2022-11-13T21:42:52.479Z,98415.97
2022-11-13T21:45:19.161Z,98417.84
2022-11-13T21:47:45.801Z,98415.13
2022-11-13T21:50:12.521Z,98406.50
2022-11-13T21:52:39.143Z,98415.22
2022-11-13T21:55:06.321Z,98418.44
2022-11-13T21:57:32.970Z,98418.00
2022-11-13T21:59:59.600Z,98415.03
2022-11-13T22:02:26.310Z,98416.69
2022-11-13T22:04:53.048Z,98413.56
2022-11-13T22:07:19.735Z,98412.09
2022-11-13T22:09:46.400Z,98418.09
2022-11-13T22:12:13.120Z,98426.59
2022-11-13T22:14:39.926Z,98428.38
2022-11-13T22:17:06.572Z,98414.13
2022-11-13T22:19:36.230Z,98419.22
2022-11-13T22:22:03.267Z,98420.03
2022-11-13T22:24:30.958Z,98405.59
2022-11-13T22:26:57.699Z,98412.41
2022-11-13T22:29:24.323Z,98395.47
2022-11-13T22:31:50.967Z,98396.25
2022-11-13T22:34:18.428Z,98404.06
2022-11-13T22:36:45.060Z,98401.06
2022-11-13T22:39:11.774Z,98401.44
2022-11-13T22:41:38.489Z,98395.00
2022-11-13T22:44:07.518Z,98396.19
2022-11-13T22:46:35.748Z,98393.38
2022-11-13T22:49:05.128Z,98393.91
2022-11-13T22:51:41.251Z,98391.00
2022-11-13T22:54:12.631Z,98390.78
2022-11-13T22:56:40.931Z,98375.66
2022-11-13T22:59:10.803Z,98390.69
2022-11-13T23:01:38.840Z,98376.09
2022-11-13T23:04:07.690Z,98373.47
2022-11-13T23:06:35.959Z,98364.28
2022-11-13T23:09:03.676Z,98365.44
2022-11-13T23:11:33.314Z,98367.03
2022-11-13T23:14:02.582Z,98349.69
2022-11-13T23:16:30.742Z,98346.81
2022-11-13T23:18:59.102Z,98353.75
2022-11-13T23:21:26.847Z,98354.56
2022-11-13T23:23:54.713Z,98348.88
2022-11-13T23:26:22.521Z,98343.53
2022-11-13T23:28:49.318Z,98342.19
2022-11-13T23:31:16.305Z,98341.75
2022-11-13T23:33:43.097Z,98330.38
2022-11-13T23:36:11.818Z,98329.94
2022-11-13T23:38:38.630Z,98332.97
2022-11-13T23:41:05.358Z,98327.75
2022-11-13T23:44:02.202Z,98327.44
2022-11-13T23:46:18.533Z,98322.47
2022-11-13T23:48:45.153Z,98319.19
2022-11-13T23:51:11.723Z,98306.91
2022-11-13T23:53:38.386Z,98314.78
2022-11-13T23:56:05.364Z,98315.44
2022-11-13T23:58:32.880Z,98320.50
